Sodus, MI (49126)

5:16 AM EST on February 01, 2015 (GMT -0500)
APRSWXNET Millburg MI US | Change Station
CLOSE
Current Station
Personal Weather Station
Location: Benton Harbor, MI
Elevation: 633 ft
Nearby Weather Stations
Active Advisory: Winter Storm Warning

Elev 633 ft 42.12 °N, 86.33 °W | Updated 35 minutes ago

Snow
Snow
29 °F
Feels Like 29 °F
N
1
Wind Variable Wind from ENE
Gusts 2.0 mph

Today
High -- | Low -- °F
--% Chance of Precip.
Yesterday
High -- | Low -- °F
Precip. -- in
7:58 AM 6:00 PM
Waxing Gibbous, 94% visible
Pressure 30.09 in
Visibility 0.8 miles
Clouds
Windchill 29 °F
Dew Point 26 °F
Humidity 87%
Rainfall 0.00 in
Snow Depth Not available.
UV Not available.
Pollen .10 out of 12
Air Quality Not available.
Flu Activity Not available.
SPECI KBEH 010957Z AUTO 09007KT 3/4SM -SN BR VV014 M02/M03 A3009 RMK AO2 P0001 T10221028

More Conditions Fewer Conditions

Pressure 30.09 in
Visibility 0.8 miles
Clouds
Windchill 29 °F
Dew Point 26 °F
Humidity 87%
Rainfall 0.00 in
Snow Depth Not available.
UV Not available.
Pollen .10 out of 12
Air Quality Not available.
Flu Activity Not available.
SPECI KBEH 010957Z AUTO 09007KT 3/4SM -SN BR VV014 M02/M03 A3009 RMK AO2 P0001 T10221028

More Conditions Fewer Conditions

10-Day Weather Forecast

Almanac

Astronomy

Feb. 01, 2015 Rise Set
Actual Time
Civil Twilight
Nautical Twilight
Astronomical Twilight
Moon
Length of Visible Light
Length of Day
Tomorrow will be .
, % of the Moon is Illuminated

Today's Extremes

State Highs State Lows

Community

WunderPhotos

Upload Photos

1,792,330 photos uploaded!

WunderBlogs® & News

Nearby

Air Quality

  Air Quality AQ Index Pollutant
Not available.

Snow Depth

Station Depth Elevation

Earthquake Activity

City Distance Mag. Time & Date
Minimum magnitude displayed is 2.5.

Coastal Water Temperatures

Place Temperature

Nearby Weather Stations